createdAt,value
2023-01-30T00:01:19.704Z,100434.38
2023-01-30T00:03:32.369Z,100436.41
2023-01-30T00:05:45.146Z,100434.70
2023-01-30T00:07:57.804Z,100430.61
2023-01-30T00:10:10.887Z,100423.94
2023-01-30T00:12:24.126Z,100424.10
2023-01-30T00:14:36.730Z,100421.02
2023-01-30T00:16:49.520Z,100417.07
2023-01-30T00:19:02.105Z,100410.91
2023-01-30T00:21:15.270Z,100404.59
2023-01-30T00:23:29.260Z,100404.41
2023-01-30T00:25:45.889Z,100400.30
2023-01-30T00:28:00.179Z,100388.52
2023-01-30T00:30:13.035Z,100389.19
2023-01-30T00:32:27.006Z,100387.81
2023-01-30T00:34:39.616Z,100389.51
2023-01-30T00:39:24.597Z,100364.77
2023-01-30T00:41:55.514Z,100357.77
2023-01-30T00:44:26.829Z,100358.94
2023-01-30T00:46:57.777Z,100352.27
2023-01-30T00:49:10.357Z,100342.05
2023-01-30T00:51:23.059Z,100330.12
2023-01-30T00:53:35.595Z,100324.48
2023-01-30T00:55:51.201Z,100323.63
2023-01-30T00:58:04.123Z,100319.36
2023-01-30T01:00:17.968Z,100319.54
2023-01-30T01:02:30.895Z,100315.45
2023-01-30T01:04:43.687Z,100309.98
2023-01-30T01:06:56.478Z,100311.33
2023-01-30T01:09:09.527Z,100310.65
2023-01-30T01:11:25.073Z,100303.83
2023-01-30T01:13:37.711Z,100302.64
2023-01-30T01:15:50.625Z,100305.02
2023-01-30T01:18:03.353Z,100299.58
2023-01-30T01:20:17.031Z,100289.02
2023-01-30T01:22:29.565Z,100292.60
2023-01-30T01:24:42.098Z,100283.05
2023-01-30T01:26:54.768Z,100277.45
2023-01-30T01:29:11.268Z,100280.70
2023-01-30T01:31:24.556Z,100271.02
2023-01-30T01:33:38.073Z,100270.50
2023-01-30T01:35:50.902Z,100263.19
2023-01-30T01:38:03.443Z,100261.99
2023-01-30T01:40:38.058Z,100257.23
2023-01-30T01:42:51.091Z,100252.30
2023-01-30T01:45:17.205Z,100243.60
2023-01-30T01:47:34.325Z,100243.95
2023-01-30T01:49:46.931Z,100236.29
2023-01-30T01:52:04.664Z,100235.10
2023-01-30T01:54:23.400Z,100231.19
2023-01-30T01:56:39.652Z,100225.23
2023-01-30T01:59:01.862Z,100221.83
2023-01-30T02:01:14.980Z,100220.28
2023-01-30T02:03:30.783Z,100223.02
2023-01-30T02:05:47.849Z,100211.77
2023-01-30T02:08:07.692Z,100210.23
2023-01-30T02:10:48.890Z,100203.92
2023-01-30T02:13:01.482Z,100194.03
2023-01-30T02:15:14.076Z,100187.73
2023-01-30T02:17:26.727Z,100176.98
2023-01-30T02:20:06.252Z,100168.14
2023-01-30T02:22:21.515Z,100156.54
2023-01-30T02:24:52.608Z,100153.30
2023-01-30T02:27:33.739Z,100146.66
2023-01-30T02:30:23.843Z,100135.41
2023-01-30T02:33:16.978Z,100127.91
2023-01-30T02:35:59.752Z,100116.67
2023-01-30T02:38:41.490Z,100120.75
2023-01-30T02:41:09.137Z,100118.20
2023-01-30T02:43:33.213Z,100112.41
2023-01-30T02:45:56.241Z,100106.78
2023-01-30T02:48:17.277Z,100104.05
2023-01-30T02:50:40.760Z,100095.53
2023-01-30T02:52:53.517Z,100083.09
2023-01-30T02:55:10.675Z,100075.41
2023-01-30T02:57:25.456Z,100070.81
2023-01-30T02:59:44.604Z,100069.10
2023-01-30T03:02:22.028Z,100067.22
2023-01-30T03:04:56.873Z,100066.20
2023-01-30T03:07:38.525Z,100060.23
2023-01-30T03:10:17.004Z,100063.65
2023-01-30T03:12:43.057Z,100054.78
2023-01-30T03:15:01.294Z,100048.31
2023-01-30T03:17:16.580Z,100044.38
2023-01-30T03:19:30.092Z,100041.29
2023-01-30T03:21:44.866Z,100035.48
2023-01-30T03:23:57.522Z,100032.41
2023-01-30T03:26:18.596Z,100029.33
2023-01-30T03:28:32.487Z,100016.88
2023-01-30T03:30:45.077Z,100004.60
2023-01-30T03:32:57.740Z,100002.72
2023-01-30T03:35:10.353Z,100006.80
2023-01-30T03:37:23.016Z,100007.13
2023-01-30T03:39:36.050Z,100006.27
2023-01-30T03:41:49.692Z,99997.39
2023-01-30T03:44:02.227Z,99985.29
2023-01-30T03:46:14.831Z,99981.88
2023-01-30T03:48:28.570Z,99984.09
2023-01-30T03:50:41.146Z,99984.77
2023-01-30T03:52:54.008Z,99985.62
2023-01-30T03:55:07.113Z,99986.79
2023-01-30T03:57:19.659Z,99976.73
2023-01-30T03:59:32.216Z,99985.60
2023-01-30T04:01:44.785Z,99980.13
2023-01-30T04:03:57.330Z,99973.32
2023-01-30T04:06:09.935Z,99965.80
2023-01-30T04:08:22.445Z,99955.39
2023-01-30T04:10:35.041Z,99944.63
2023-01-30T04:12:47.766Z,99939.02
2023-01-30T04:15:00.297Z,99929.80
2023-01-30T04:17:13.193Z,99910.87
2023-01-30T04:19:25.822Z,99888.56
2023-01-30T04:21:38.402Z,99885.83
2023-01-30T04:23:50.965Z,99883.29
2023-01-30T04:26:04.370Z,99880.21
2023-01-30T04:28:16.877Z,99871.67
2023-01-30T04:30:29.504Z,99869.80
2023-01-30T04:32:42.116Z,99868.60
2023-01-30T04:34:54.672Z,99868.27
2023-01-30T04:37:07.283Z,99862.98
2023-01-30T04:39:21.286Z,99865.02
2023-01-30T04:41:34.627Z,99859.05
2023-01-30T04:43:47.194Z,99857.35
2023-01-30T04:45:59.748Z,99844.89
2023-01-30T04:48:12.892Z,99837.39
2023-01-30T04:50:25.430Z,99828.67
2023-01-30T04:52:39.624Z,99820.99
2023-01-30T04:54:52.461Z,99814.54
2023-01-30T04:57:04.921Z,99808.88
2023-01-30T04:59:17.681Z,99806.48
2023-01-30T05:01:33.059Z,99804.06
2023-01-30T05:03:45.698Z,99801.14
2023-01-30T05:05:58.249Z,99807.27
2023-01-30T05:08:10.826Z,99803.49
2023-01-30T05:10:23.515Z,99798.88
2023-01-30T05:12:36.154Z,99794.05
2023-01-30T05:14:48.808Z,99783.14
2023-01-30T05:17:01.450Z,99787.90
2023-01-30T05:19:14.192Z,99785.14
2023-01-30T05:21:28.683Z,99782.91
2023-01-30T05:23:41.848Z,99778.81
2023-01-30T05:25:54.577Z,99776.55
2023-01-30T05:28:07.613Z,99771.77
2023-01-30T05:30:20.559Z,99755.23
2023-01-30T05:32:33.372Z,99754.23
2023-01-30T05:34:46.253Z,99754.59
2023-01-30T05:36:58.906Z,99747.42
2023-01-30T05:39:11.647Z,99745.84
2023-01-30T05:41:24.229Z,99741.92
2023-01-30T05:43:36.843Z,99734.41
2023-01-30T05:45:53.677Z,99734.58
2023-01-30T05:48:06.632Z,99727.92
2023-01-30T05:50:19.699Z,99723.48
2023-01-30T05:52:33.364Z,99715.40
2023-01-30T05:54:45.992Z,99722.56
2023-01-30T05:56:58.558Z,99727.81
2023-01-30T05:59:12.029Z,99720.81
2023-01-30T06:01:25.092Z,99715.70
2023-01-30T06:03:38.308Z,99705.11
2023-01-30T06:05:50.841Z,99701.87
2023-01-30T06:08:03.480Z,99704.77
2023-01-30T06:10:16.394Z,99706.30
2023-01-30T06:12:28.916Z,99701.86
2023-01-30T06:14:41.669Z,99696.05
2023-01-30T06:16:54.298Z,99698.95
2023-01-30T06:19:08.275Z,99699.80
2023-01-30T06:21:20.866Z,99698.60
2023-01-30T06:23:33.852Z,99703.70
2023-01-30T06:25:48.885Z,99712.21
2023-01-30T06:28:01.674Z,99703.67
2023-01-30T06:30:14.571Z,99698.38
2023-01-30T06:32:27.578Z,99687.46
2023-01-30T06:34:40.166Z,99679.09
2023-01-30T06:36:52.780Z,99666.62
2023-01-30T06:39:05.405Z,99658.04
2023-01-30T06:41:18.109Z,99652.91
2023-01-30T06:43:30.765Z,99649.50
2023-01-30T06:45:43.716Z,99643.66
2023-01-30T06:47:57.287Z,99646.88
2023-01-30T06:50:10.110Z,99652.00
2023-01-30T06:52:22.773Z,99655.75
2023-01-30T06:54:35.330Z,99657.79
2023-01-30T06:56:47.830Z,99654.38
2023-01-30T06:59:00.441Z,99651.30
2023-01-30T07:01:13.031Z,99651.82
2023-01-30T07:03:25.642Z,99650.30
2023-01-30T07:05:42.634Z,99650.64
2023-01-30T07:07:55.261Z,99647.73
2023-01-30T07:10:09.241Z,99648.07
2023-01-30T07:12:22.375Z,99646.70
2023-01-30T07:14:34.873Z,99638.17
2023-01-30T07:16:47.459Z,99640.38
2023-01-30T07:19:00.004Z,99644.63
2023-01-30T07:21:12.542Z,99642.54
2023-01-30T07:23:25.123Z,99644.24
2023-01-30T07:25:37.655Z,99643.05
2023-01-30T07:27:52.162Z,99640.48
2023-01-30T07:30:05.325Z,99637.79
2023-01-30T07:32:19.859Z,99633.86
2023-01-30T07:34:33.309Z,99633.73
2023-01-30T07:36:45.851Z,99621.85
2023-01-30T07:38:58.392Z,99624.44
2023-01-30T07:41:10.959Z,99617.30
2023-01-30T07:43:24.161Z,99614.58
2023-01-30T07:45:42.117Z,99612.01
2023-01-30T07:47:54.872Z,99608.04
2023-01-30T07:50:08.018Z,99607.71
2023-01-30T07:52:20.560Z,99606.73
2023-01-30T07:54:33.147Z,99600.42
2023-01-30T07:56:45.665Z,99608.26
2023-01-30T07:58:58.339Z,99604.67
2023-01-30T08:01:10.963Z,99603.66
2023-01-30T08:03:23.551Z,99598.02
2023-01-30T08:05:36.105Z,99593.37
2023-01-30T08:07:48.852Z,99587.20
2023-01-30T08:10:01.426Z,99591.61
2023-01-30T08:12:14.144Z,99580.64
2023-01-30T08:14:28.683Z,99579.70
2023-01-30T08:16:41.575Z,99570.31
2023-01-30T08:18:54.213Z,99575.77
2023-01-30T08:21:07.397Z,99572.85
2023-01-30T08:23:19.938Z,99573.98
2023-01-30T08:25:32.546Z,99565.86
2023-01-30T08:27:45.132Z,99559.45
2023-01-30T08:29:57.711Z,99553.02
2023-01-30T08:32:10.962Z,99545.41
2023-01-30T08:34:23.590Z,99542.08
2023-01-30T08:36:36.291Z,99543.89
2023-01-30T08:38:48.863Z,99539.57
2023-01-30T08:41:04.803Z,99542.59
2023-01-30T08:43:17.379Z,99538.61
2023-01-30T08:45:30.717Z,99536.16
2023-01-30T08:47:43.356Z,99534.27
2023-01-30T08:49:55.859Z,99537.10
2023-01-30T08:52:08.397Z,99529.70
2023-01-30T08:54:22.227Z,99522.52
2023-01-30T08:56:34.940Z,99524.70
2023-01-30T08:58:49.035Z,99521.06
2023-01-30T09:01:06.621Z,99519.86
2023-01-30T09:03:19.344Z,99520.73
2023-01-30T09:05:32.489Z,99517.31
2023-01-30T09:07:45.125Z,99513.18
2023-01-30T09:09:57.692Z,99515.26
2023-01-30T09:12:10.251Z,99513.70
2023-01-30T09:14:23.121Z,99514.09
2023-01-30T09:16:35.697Z,99512.39
2023-01-30T09:18:48.347Z,99505.40
2023-01-30T09:21:04.800Z,99504.54
2023-01-30T09:23:17.746Z,99510.70
2023-01-30T09:25:30.339Z,99509.13
2023-01-30T09:27:44.506Z,99510.80
2023-01-30T09:29:57.208Z,99507.05
2023-01-30T09:32:09.786Z,99504.45
2023-01-30T09:34:28.499Z,99498.85
2023-01-30T09:36:41.595Z,99494.48
2023-01-30T09:38:54.313Z,99497.38
2023-01-30T09:41:28.504Z,99496.36
2023-01-30T09:44:02.700Z,99492.79
2023-01-30T09:46:26.603Z,99489.25
2023-01-30T09:48:53.661Z,99487.76
2023-01-30T09:51:30.900Z,99484.36
2023-01-30T09:54:22.258Z,99482.48
2023-01-30T09:56:34.841Z,99475.08
2023-01-30T09:59:01.347Z,99472.83
2023-01-30T10:01:25.710Z,99472.96
2023-01-30T10:04:04.042Z,99475.80
2023-01-30T10:06:16.888Z,99472.35
2023-01-30T10:08:51.188Z,99474.89
2023-01-30T10:11:41.563Z,99470.36
2023-01-30T10:14:12.792Z,99465.21
2023-01-30T10:16:35.046Z,99460.12
2023-01-30T10:19:35.280Z,99455.02
2023-01-30T10:21:48.361Z,99453.20
2023-01-30T10:24:13.933Z,99446.30
2023-01-30T10:26:28.346Z,99443.35
2023-01-30T10:29:06.112Z,99440.87
2023-01-30T10:31:22.869Z,99445.16
2023-01-30T10:33:45.336Z,99441.91
2023-01-30T10:36:06.401Z,99436.89
2023-01-30T10:38:30.407Z,99439.25
2023-01-30T10:40:49.285Z,99432.34
2023-01-30T10:43:04.165Z,99431.92
2023-01-30T10:45:20.947Z,99425.05
2023-01-30T10:47:59.920Z,99420.69
2023-01-30T10:50:19.498Z,99415.34
2023-01-30T10:52:58.091Z,99412.02
2023-01-30T10:55:36.265Z,99413.27
2023-01-30T10:58:26.481Z,99408.81
2023-01-30T11:00:48.824Z,99403.98
2023-01-30T11:03:18.205Z,99403.86
2023-01-30T11:05:41.604Z,99400.19
2023-01-30T11:07:54.150Z,99401.66
2023-01-30T11:10:15.870Z,99395.48
2023-01-30T11:12:28.527Z,99390.39
2023-01-30T11:14:59.148Z,99388.45
2023-01-30T11:17:16.693Z,99381.16
2023-01-30T11:19:34.482Z,99372.89
2023-01-30T11:21:52.857Z,99364.77
2023-01-30T11:24:14.223Z,99363.91
2023-01-30T11:26:45.617Z,99351.78
2023-01-30T11:28:59.723Z,99345.92
2023-01-30T11:31:25.631Z,99348.64
2023-01-30T11:34:01.105Z,99349.90
2023-01-30T11:36:30.268Z,99339.44
2023-01-30T11:38:56.763Z,99342.83
2023-01-30T11:41:09.324Z,99347.05
2023-01-30T11:43:24.815Z,99342.20
2023-01-30T11:45:49.890Z,99337.52
2023-01-30T11:48:07.878Z,99332.66
2023-01-30T11:50:33.371Z,99329.51
2023-01-30T11:52:48.556Z,99320.14
2023-01-30T11:55:07.784Z,99316.16
2023-01-30T11:57:21.037Z,99317.03
2023-01-30T11:59:39.350Z,99309.27
2023-01-30T12:02:01.493Z,99306.80
2023-01-30T12:04:14.399Z,99308.52
2023-01-30T12:06:32.185Z,99307.10
2023-01-30T12:08:44.747Z,99307.00
2023-01-30T12:11:01.267Z,99304.23
2023-01-30T12:13:22.404Z,99303.54
2023-01-30T12:15:37.850Z,99298.85
2023-01-30T12:18:11.954Z,99296.80
2023-01-30T12:20:52.595Z,99294.83
2023-01-30T12:23:12.647Z,99292.48
2023-01-30T12:25:35.744Z,99285.70
2023-01-30T12:28:01.174Z,99285.39
2023-01-30T12:30:32.460Z,99286.55
2023-01-30T12:32:45.285Z,99282.05
2023-01-30T12:34:57.910Z,99285.95
2023-01-30T12:37:49.818Z,99278.02
2023-01-30T12:40:16.083Z,99289.53
2023-01-30T12:43:00.903Z,99296.72
2023-01-30T12:45:23.051Z,99289.46
2023-01-30T12:48:04.249Z,99281.76
2023-01-30T12:50:54.536Z,99284.48
2023-01-30T12:53:37.943Z,99285.71
2023-01-30T12:56:19.046Z,99283.36
2023-01-30T12:58:50.124Z,99291.48
2023-01-30T13:01:27.919Z,99282.59
2023-01-30T13:04:56.138Z,99287.54
2023-01-30T13:07:27.154Z,99293.66
2023-01-30T13:10:09.934Z,99291.56
2023-01-30T13:13:00.060Z,99282.77
2023-01-30T13:15:32.113Z,99287.42
2023-01-30T13:18:02.652Z,99279.81
2023-01-30T13:20:18.358Z,99282.15
2023-01-30T13:22:51.783Z,99281.73
2023-01-30T13:25:19.971Z,99284.86
2023-01-30T13:27:37.451Z,99292.41
2023-01-30T13:29:52.598Z,99289.48
2023-01-30T13:32:14.235Z,99285.52
2023-01-30T13:34:29.711Z,99291.42
2023-01-30T13:36:57.022Z,99291.05
2023-01-30T13:41:38.929Z,99285.79
2023-01-30T13:43:54.465Z,99289.03
2023-01-30T13:46:10.218Z,99293.16
2023-01-30T13:48:42.610Z,99294.90
2023-01-30T13:51:32.683Z,99290.48
2023-01-30T13:54:08.625Z,99289.02
2023-01-30T13:56:44.810Z,99287.50
2023-01-30T13:59:34.403Z,99284.20
2023-01-30T14:01:59.504Z,99282.85
2023-01-30T14:04:39.446Z,99283.37
2023-01-30T14:06:52.041Z,99286.04
2023-01-30T14:09:29.082Z,99278.21
2023-01-30T14:11:57.339Z,99277.92
2023-01-30T14:14:15.766Z,99282.48
2023-01-30T14:16:46.709Z,99281.18
2023-01-30T14:18:59.344Z,99282.98
2023-01-30T14:21:20.191Z,99282.05
2023-01-30T14:23:34.996Z,99292.29
2023-01-30T14:25:53.340Z,99294.85
2023-01-30T14:28:05.997Z,99298.58
2023-01-30T14:30:30.835Z,99298.98
2023-01-30T14:32:54.971Z,99297.46
2023-01-30T14:35:07.514Z,99311.59
2023-01-30T14:37:27.317Z,99311.80
2023-01-30T14:39:40.852Z,99309.11
2023-01-30T14:42:12.428Z,99309.25
2023-01-30T14:45:00.431Z,99308.48
2023-01-30T14:47:34.156Z,99305.11
2023-01-30T14:49:52.594Z,99302.62
2023-01-30T14:52:05.246Z,99299.00
2023-01-30T14:54:18.007Z,99298.96
2023-01-30T14:56:55.522Z,99298.19
2023-01-30T14:59:19.460Z,99302.08
2023-01-30T15:01:56.828Z,99308.72
2023-01-30T15:04:16.139Z,99308.79
2023-01-30T15:06:35.924Z,99312.85
2023-01-30T15:08:48.501Z,99306.85
2023-01-30T15:11:27.489Z,99301.92
2023-01-30T15:13:55.723Z,99298.44
2023-01-30T15:16:30.555Z,99306.81
2023-01-30T15:19:17.223Z,99307.26
2023-01-30T15:21:50.260Z,99299.84
2023-01-30T15:24:38.280Z,99302.73
2023-01-30T15:27:12.574Z,99312.02
2023-01-30T15:29:40.340Z,99314.02
2023-01-30T15:31:57.612Z,99312.66
2023-01-30T15:34:20.262Z,99312.06
2023-01-30T15:36:34.963Z,99322.89
2023-01-30T15:38:56.071Z,99320.85
2023-01-30T15:41:10.432Z,99319.34
2023-01-30T15:43:48.162Z,99306.73
2023-01-30T15:46:03.838Z,99304.59
2023-01-30T15:48:38.797Z,99308.98
2023-01-30T15:50:55.151Z,99303.48
2023-01-30T15:53:14.733Z,99308.59
2023-01-30T15:55:31.028Z,99304.88
2023-01-30T15:57:50.257Z,99308.60
2023-01-30T16:00:06.992Z,99308.92
2023-01-30T16:02:29.006Z,99305.73
2023-01-30T16:04:41.731Z,99315.66
2023-01-30T16:06:54.465Z,99313.39
2023-01-30T16:09:20.361Z,99321.54
2023-01-30T16:11:41.730Z,99325.45
2023-01-30T16:13:54.363Z,99324.81
2023-01-30T16:16:12.899Z,99327.18
2023-01-30T16:18:36.576Z,99328.60
2023-01-30T16:21:01.509Z,99332.92
2023-01-30T16:23:24.837Z,99332.75
2023-01-30T16:25:37.383Z,99338.45
2023-01-30T16:27:52.282Z,99341.14
2023-01-30T16:30:09.233Z,99346.92
2023-01-30T16:32:31.841Z,99343.54
2023-01-30T16:34:44.495Z,99344.92
2023-01-30T16:37:02.442Z,99346.23
2023-01-30T16:39:35.251Z,99347.73
2023-01-30T16:41:55.015Z,99343.14
2023-01-30T16:44:20.713Z,99345.98
2023-01-30T16:46:42.212Z,99330.92
2023-01-30T16:49:03.787Z,99331.08
2023-01-30T16:51:22.859Z,99327.52
2023-01-30T16:53:35.615Z,99329.42
2023-01-30T16:56:03.802Z,99330.04
2023-01-30T16:58:17.832Z,99332.14
2023-01-30T17:00:38.794Z,99332.36
2023-01-30T17:03:03.568Z,99338.48
2023-01-30T17:05:19.730Z,99339.41
2023-01-30T17:07:35.308Z,99338.95
2023-01-30T17:09:48.506Z,99337.47
2023-01-30T17:12:08.942Z,99336.75
2023-01-30T17:14:32.935Z,99336.57
2023-01-30T17:17:08.088Z,99335.75
2023-01-30T17:19:23.756Z,99327.39
2023-01-30T17:21:49.615Z,99323.02
2023-01-30T17:24:06.023Z,99329.20
2023-01-30T17:26:19.236Z,99334.65
2023-01-30T17:28:31.808Z,99337.52
2023-01-30T17:30:44.447Z,99334.52
2023-01-30T17:32:57.108Z,99337.52
2023-01-30T17:35:12.272Z,99343.73
2023-01-30T17:37:24.953Z,99352.81
2023-01-30T17:39:37.603Z,99360.97
2023-01-30T17:41:50.548Z,99360.58
2023-01-30T17:44:03.264Z,99363.30
2023-01-30T17:46:16.416Z,99372.73
2023-01-30T17:48:29.979Z,99371.73
2023-01-30T17:50:42.629Z,99373.48
2023-01-30T17:52:55.294Z,99382.50
2023-01-30T17:55:12.135Z,99391.80
2023-01-30T17:57:25.136Z,99399.16
2023-01-30T17:59:37.643Z,99391.66
2023-01-30T18:01:51.834Z,99386.10
2023-01-30T18:04:04.687Z,99408.48
2023-01-30T18:06:18.041Z,99409.54
2023-01-30T18:08:30.643Z,99408.15
2023-01-30T18:10:43.297Z,99410.70
2023-01-30T18:12:55.910Z,99413.75
2023-01-30T18:15:10.097Z,99418.30
2023-01-30T18:17:23.953Z,99417.35
2023-01-30T18:19:36.568Z,99417.76
2023-01-30T18:21:49.879Z,99411.00
2023-01-30T18:24:02.714Z,99414.41
2023-01-30T18:26:16.526Z,99420.77
2023-01-30T18:28:29.279Z,99431.94
2023-01-30T18:30:41.936Z,99437.11
2023-01-30T18:32:54.529Z,99438.52
2023-01-30T18:35:07.804Z,99437.86
2023-01-30T18:37:20.389Z,99434.83
2023-01-30T18:39:33.291Z,99435.77
2023-01-30T18:41:45.922Z,99441.83
2023-01-30T18:44:04.649Z,99444.64
2023-01-30T18:46:18.154Z,99452.97
2023-01-30T18:48:31.984Z,99446.89
2023-01-30T18:50:44.559Z,99446.58
2023-01-30T18:52:58.048Z,99454.34
2023-01-30T18:55:10.607Z,99457.38
2023-01-30T18:57:23.349Z,99465.98
2023-01-30T18:59:36.042Z,99460.16
2023-01-30T19:01:48.802Z,99465.81
2023-01-30T19:04:03.823Z,99464.62
2023-01-30T19:06:18.779Z,99470.58
2023-01-30T19:08:31.719Z,99477.91
2023-01-30T19:10:44.671Z,99483.52
2023-01-30T19:13:15.943Z,99487.67
2023-01-30T19:15:28.602Z,99489.05
2023-01-30T19:17:41.188Z,99486.44
2023-01-30T19:19:53.750Z,99491.98
2023-01-30T19:22:06.437Z,99493.59
2023-01-30T19:24:19.197Z,99498.99
2023-01-30T19:26:32.178Z,99504.41
2023-01-30T19:28:45.207Z,99501.27
2023-01-30T19:30:58.499Z,99500.98
2023-01-30T19:33:11.085Z,99499.08
2023-01-30T19:35:23.747Z,99500.39
2023-01-30T19:37:38.510Z,99502.44
2023-01-30T19:39:51.122Z,99516.52
2023-01-30T19:42:03.943Z,99517.89
2023-01-30T19:44:16.683Z,99515.01
2023-01-30T19:46:29.691Z,99514.94
2023-01-30T19:48:43.835Z,99513.62
2023-01-30T19:50:56.811Z,99520.52
2023-01-30T19:53:09.326Z,99525.55
2023-01-30T19:55:21.960Z,99524.89
2023-01-30T19:57:35.780Z,99530.67
2023-01-30T19:59:48.306Z,99532.86
2023-01-30T20:02:00.871Z,99531.56
2023-01-30T20:04:13.607Z,99530.05
2023-01-30T20:06:29.262Z,99530.20
2023-01-30T20:08:43.597Z,99529.98
2023-01-30T20:11:01.961Z,99532.98
2023-01-30T20:13:14.643Z,99530.92
2023-01-30T20:15:27.294Z,99527.17
2023-01-30T20:17:39.906Z,99529.97
2023-01-30T20:19:52.504Z,99535.30
2023-01-30T20:22:08.156Z,99542.39
2023-01-30T20:24:20.763Z,99552.09
2023-01-30T20:26:36.064Z,99553.28
2023-01-30T20:28:49.278Z,99555.08
2023-01-30T20:31:08.977Z,99564.20
2023-01-30T20:33:21.680Z,99571.34
2023-01-30T20:35:35.574Z,99566.95
2023-01-30T20:37:48.233Z,99578.09
2023-01-30T20:40:00.822Z,99578.81
2023-01-30T20:42:13.920Z,99583.82
2023-01-30T20:44:27.019Z,99590.48
2023-01-30T20:46:49.705Z,99582.00
2023-01-30T20:49:02.367Z,99592.20
2023-01-30T20:51:18.093Z,99598.56
2023-01-30T20:53:30.915Z,99589.77
2023-01-30T20:55:43.468Z,99587.15
2023-01-30T20:57:56.036Z,99586.80
2023-01-30T21:00:09.465Z,99588.61
2023-01-30T21:02:22.069Z,99589.38
2023-01-30T21:04:34.768Z,99592.02
2023-01-30T21:06:47.403Z,99598.86
2023-01-30T21:09:00.050Z,99597.30
2023-01-30T21:11:15.377Z,99595.73
2023-01-30T21:13:27.913Z,99599.08
2023-01-30T21:15:40.447Z,99607.55
2023-01-30T21:17:53.076Z,99610.09
2023-01-30T21:20:05.976Z,99613.13
2023-01-30T21:22:18.528Z,99614.33
2023-01-30T21:24:31.215Z,99621.48
2023-01-30T21:26:46.254Z,99623.35
2023-01-30T21:29:03.655Z,99628.98
2023-01-30T21:31:19.507Z,99629.97
2023-01-30T21:33:32.157Z,99627.20
2023-01-30T21:35:44.754Z,99635.90
2023-01-30T21:38:15.861Z,99634.71
2023-01-30T21:40:47.075Z,99643.15
2023-01-30T21:43:15.016Z,99647.73
2023-01-30T21:45:27.533Z,99651.61
2023-01-30T21:47:40.111Z,99660.13
2023-01-30T21:49:55.769Z,99661.06
2023-01-30T21:52:08.459Z,99670.95
2023-01-30T21:54:21.715Z,99673.78
2023-01-30T21:56:34.361Z,99674.27
2023-01-30T21:58:47.141Z,99680.77
2023-01-30T22:01:07.586Z,99684.17
2023-01-30T22:03:20.225Z,99690.63
2023-01-30T22:05:36.495Z,99702.59
2023-01-30T22:07:49.393Z,99701.38
2023-01-30T22:10:02.441Z,99701.50
2023-01-30T22:12:15.099Z,99711.44
2023-01-30T22:14:27.687Z,99711.46
2023-01-30T22:16:41.372Z,99713.95
2023-01-30T22:18:57.294Z,99721.57
2023-01-30T22:21:15.229Z,99723.99
2023-01-30T22:23:36.261Z,99725.77
2023-01-30T22:25:55.091Z,99730.65
2023-01-30T22:28:09.424Z,99738.58
2023-01-30T22:30:22.743Z,99741.56
2023-01-30T22:32:35.258Z,99741.88
2023-01-30T22:34:47.837Z,99743.80
2023-01-30T22:37:00.372Z,99740.36
2023-01-30T22:39:12.877Z,99742.58
2023-01-30T22:41:27.409Z,99746.70
2023-01-30T22:43:45.041Z,99749.59
2023-01-30T22:46:00.684Z,99751.72
2023-01-30T22:48:13.551Z,99754.80
2023-01-30T22:50:26.079Z,99752.84
2023-01-30T22:52:38.615Z,99750.55
2023-01-30T22:54:51.150Z,99755.98
2023-01-30T22:57:03.720Z,99758.40
2023-01-30T22:59:16.370Z,99760.84
2023-01-30T23:01:31.590Z,99761.70
2023-01-30T23:03:45.841Z,99754.07
2023-01-30T23:06:00.044Z,99753.32
2023-01-30T23:08:12.578Z,99753.45
2023-01-30T23:10:25.125Z,99763.90
2023-01-30T23:12:56.410Z,99766.48
2023-01-30T23:15:09.412Z,99767.17
2023-01-30T23:17:40.779Z,99767.13
2023-01-30T23:19:55.063Z,99767.48
2023-01-30T23:22:07.625Z,99769.66
2023-01-30T23:24:20.928Z,99769.41
2023-01-30T23:26:36.241Z,99767.05
2023-01-30T23:28:49.417Z,99763.92
2023-01-30T23:31:13.979Z,99768.00
2023-01-30T23:33:26.492Z,99764.16
2023-01-30T23:35:38.987Z,99768.45
2023-01-30T23:38:10.199Z,99772.89
2023-01-30T23:40:22.868Z,99774.70
2023-01-30T23:42:35.440Z,99778.45
2023-01-30T23:44:47.982Z,99779.16
2023-01-30T23:47:00.581Z,99779.48
2023-01-30T23:49:14.359Z,99782.52
2023-01-30T23:51:29.083Z,99777.54
2023-01-30T23:53:43.327Z,99783.31
2023-01-30T23:55:55.993Z,99786.92
2023-01-30T23:58:09.634Z,99789.56
